Time;durP1;ratioP1;P1;durP2;ratioP2;P2;SDS_P1;SDS_P2;PMS_P1;PMS_P2;Temp;Humidity;BMP_temperature;BMP_pressure;BME280_temperature;BME280_humidity;BME280_pressure;Samples;Min_cycle;Max_cycle;Signal;HPM_P1;HPM_P2
2022/07/09 00:01:06;;;;;;;15.65;9.95;;;;;;;;;;5013227;28;20030;-74
2022/07/09 00:03:33;;;;;;;15.23;9.27;;;;;;;;;;5015915;28;20049;-74
2022/07/09 00:05:59;;;;;;;15.38;9.85;;;;;;;;;;5015635;28;20394;-74
2022/07/09 00:08:25;;;;;;;15.27;9.40;;;;;;;;;;5027324;28;20379;-74
2022/07/09 00:10:51;;;;;;;16.25;8.88;;;;;;;;;;5035559;28;20392;-75
2022/07/09 00:13:17;;;;;;;14.35;8.95;;;;;;;;;;5035428;28;20101;-74
2022/07/09 00:15:43;;;;;;;13.43;8.55;;;;;;;;;;5035263;28;20053;-74
2022/07/09 00:18:09;;;;;;;15.18;9.05;;;;;;;;;;5023201;28;20022;-74
2022/07/09 00:20:35;;;;;;;12.27;8.48;;;;;;;;;;5015350;28;20025;-74
2022/07/09 00:23:01;;;;;;;14.25;9.02;;;;;;;;;;5014149;28;20507;-74
2022/07/09 00:25:27;;;;;;;17.98;9.13;;;;;;;;;;5015501;28;20034;-74
2022/07/09 00:27:53;;;;;;;16.65;8.48;;;;;;;;;;5015429;28;20030;-74
2022/07/09 00:30:19;;;;;;;15.10;8.85;;;;;;;;;;5015003;28;20060;-74
2022/07/09 00:32:45;;;;;;;13.60;8.52;;;;;;;;;;5015240;28;20072;-74
2022/07/09 00:35:11;;;;;;;17.38;9.25;;;;;;;;;;5015036;28;20018;-74
2022/07/09 00:37:37;;;;;;;12.38;8.95;;;;;;;;;;5015227;28;20026;-74
2022/07/09 00:40:03;;;;;;;14.20;9.23;;;;;;;;;;5015168;28;20026;-74
2022/07/09 00:42:30;;;;;;;10.43;8.00;;;;;;;;;;5015170;28;20049;-75
2022/07/09 00:44:56;;;;;;;13.68;8.80;;;;;;;;;;5014990;28;20022;-74
2022/07/09 00:47:22;;;;;;;14.02;8.60;;;;;;;;;;5014928;28;20104;-74
2022/07/09 00:49:48;;;;;;;15.27;8.77;;;;;;;;;;5014830;28;20149;-74
2022/07/09 00:52:15;;;;;;;13.70;8.57;;;;;;;;;;5014889;28;20038;-74
2022/07/09 00:54:42;;;;;;;15.82;7.80;;;;;;;;;;5014861;28;20029;-74
2022/07/09 00:57:09;;;;;;;13.70;8.30;;;;;;;;;;5014839;28;20064;-74
2022/07/09 00:59:35;;;;;;;16.45;7.65;;;;;;;;;;5014829;28;20100;-74
2022/07/09 01:02:02;;;;;;;15.30;7.65;;;;;;;;;;5014680;28;20472;-75
2022/07/09 01:04:28;;;;;;;14.82;8.50;;;;;;;;;;5014738;28;20088;-75
2022/07/09 01:06:54;;;;;;;13.32;8.80;;;;;;;;;;5014518;28;20539;-74
2022/07/09 01:09:21;;;;;;;11.15;7.75;;;;;;;;;;5033524;28;20087;-74
2022/07/09 01:11:47;;;;;;;13.32;8.32;;;;;;;;;;5034054;28;20018;-74
2022/07/09 01:14:13;;;;;;;15.77;10.32;;;;;;;;;;5034342;28;20547;-74
2022/07/09 01:16:39;;;;;;;21.23;9.50;;;;;;;;;;5034152;28;20057;-75
2022/07/09 01:19:06;;;;;;;17.40;9.88;;;;;;;;;;5012857;28;20026;-74
2022/07/09 01:21:32;;;;;;;14.13;8.73;;;;;;;;;;5012873;28;20041;-74
2022/07/09 01:23:58;;;;;;;14.68;9.05;;;;;;;;;;5014398;28;20046;-75
2022/07/09 01:26:24;;;;;;;15.60;9.50;;;;;;;;;;5014329;28;20061;-74
2022/07/09 01:28:51;;;;;;;13.02;9.38;;;;;;;;;;5014295;28;20029;-74
2022/07/09 01:31:17;;;;;;;15.27;9.63;;;;;;;;;;5013782;28;20407;-74
2022/07/09 01:33:43;;;;;;;17.38;8.85;;;;;;;;;;5014050;28;20080;-74
2022/07/09 01:36:09;;;;;;;16.33;9.40;;;;;;;;;;5013958;28;20040;-74
2022/07/09 01:38:35;;;;;;;19.10;10.70;;;;;;;;;;5014126;28;20400;-74
2022/07/09 01:41:01;;;;;;;14.68;9.43;;;;;;;;;;5014071;28;20033;-74
2022/07/09 01:43:27;;;;;;;15.20;9.15;;;;;;;;;;5013958;28;20040;-74
2022/07/09 01:45:53;;;;;;;18.00;10.05;;;;;;;;;;5013659;28;20041;-74
2022/07/09 01:48:20;;;;;;;19.00;10.52;;;;;;;;;;5012522;28;20357;-74
2022/07/09 01:50:46;;;;;;;15.13;9.77;;;;;;;;;;5013630;28;20029;-73
2022/07/09 01:53:12;;;;;;;13.43;8.43;;;;;;;;;;5013893;28;20038;-74
2022/07/09 01:55:38;;;;;;;11.25;8.25;;;;;;;;;;5013692;28;20092;-74
2022/07/09 01:58:04;;;;;;;14.68;9.65;;;;;;;;;;5013818;28;20018;-74
2022/07/09 02:00:31;;;;;;;19.73;11.40;;;;;;;;;;5013624;28;20026;-74
2022/07/09 02:02:57;;;;;;;17.67;10.27;;;;;;;;;;5013753;28;20030;-74
2022/07/09 02:05:23;;;;;;;14.68;9.27;;;;;;;;;;5013406;28;20062;-74
2022/07/09 02:07:49;;;;;;;17.35;10.00;;;;;;;;;;5020250;28;20017;-74
2022/07/09 02:10:16;;;;;;;20.88;9.25;;;;;;;;;;5033243;28;20079;-74
2022/07/09 02:12:42;;;;;;;19.73;10.02;;;;;;;;;;5033147;28;20091;-74
2022/07/09 02:15:10;;;;;;;16.52;10.13;;;;;;;;;;5033026;28;20026;-74
2022/07/09 02:17:36;;;;;;;19.10;10.60;;;;;;;;;;5024041;28;20017;-74
2022/07/09 02:20:03;;;;;;;15.25;9.82;;;;;;;;;;5012959;28;20105;-74
2022/07/09 02:22:29;;;;;;;16.05;8.88;;;;;;;;;;5013335;28;20029;-74
2022/07/09 02:24:55;;;;;;;12.82;8.48;;;;;;;;;;5012470;28;20022;-74
2022/07/09 02:27:22;;;;;;;13.13;8.05;;;;;;;;;;5013187;28;20041;-74
2022/07/09 02:29:48;;;;;;;16.52;9.00;;;;;;;;;;5012913;28;20049;-74
2022/07/09 02:32:14;;;;;;;12.10;8.45;;;;;;;;;;5012978;28;20026;-74
2022/07/09 02:34:40;;;;;;;13.07;8.80;;;;;;;;;;5012987;28;20081;-74
2022/07/09 02:37:06;;;;;;;16.98;9.63;;;;;;;;;;5012941;28;20030;-74
2022/07/09 02:39:32;;;;;;;22.17;10.77;;;;;;;;;;5012831;28;20113;-74
2022/07/09 02:41:58;;;;;;;18.52;9.68;;;;;;;;;;5011517;28;20052;-75
2022/07/09 02:44:24;;;;;;;16.25;10.10;;;;;;;;;;5012915;28;20465;-74
2022/07/09 02:46:50;;;;;;;14.27;10.40;;;;;;;;;;5012667;28;20025;-74
2022/07/09 02:49:17;;;;;;;17.15;9.73;;;;;;;;;;5012709;28;20132;-74
2022/07/09 02:51:43;;;;;;;18.42;10.25;;;;;;;;;;5012641;28;20096;-74
2022/07/09 02:54:09;;;;;;;16.13;9.80;;;;;;;;;;5012702;28;20117;-74
2022/07/09 02:56:35;;;;;;;17.25;10.75;;;;;;;;;;5012624;28;20105;-75
2022/07/09 02:59:02;;;;;;;17.42;10.20;;;;;;;;;;5012634;28;20559;-74
2022/07/09 03:01:29;;;;;;;23.70;11.70;;;;;;;;;;5012471;28;20466;-74
2022/07/09 03:03:55;;;;;;;21.77;12.73;;;;;;;;;;5012670;28;20038;-74
2022/07/09 03:06:21;;;;;;;20.80;10.55;;;;;;;;;;5011031;28;20018;-74
2022/07/09 03:08:48;;;;;;;24.83;13.07;;;;;;;;;;5027000;28;20048;-75
2022/07/09 03:11:14;;;;;;;21.70;11.55;;;;;;;;;;5032299;28;20036;-74
2022/07/09 03:13:40;;;;;;;26.95;12.93;;;;;;;;;;5032181;28;20025;-74
2022/07/09 03:16:06;;;;;;;28.33;14.82;;;;;;;;;;5031958;28;20056;-74
2022/07/09 03:18:33;;;;;;;26.35;14.50;;;;;;;;;;5016894;28;20022;-74
2022/07/09 03:20:59;;;;;;;21.55;12.43;;;;;;;;;;5012027;28;20029;-75
2022/07/09 03:23:25;;;;;;;25.20;13.52;;;;;;;;;;5012259;28;20433;-74
2022/07/09 03:25:51;;;;;;;32.15;16.55;;;;;;;;;;5012259;28;20428;-74
2022/07/09 03:28:18;;;;;;;25.90;12.20;;;;;;;;;;5012314;28;20476;-74
2022/07/09 03:30:44;;;;;;;20.55;10.82;;;;;;;;;;5011880;28;20117;-75
2022/07/09 03:33:10;;;;;;;25.15;12.27;;;;;;;;;;5012174;28;20030;-74
2022/07/09 03:35:36;;;;;;;21.70;12.98;;;;;;;;;;5011877;28;20026;-74
2022/07/09 03:38:02;;;;;;;25.05;12.88;;;;;;;;;;5012183;28;20026;-74
2022/07/09 03:40:29;;;;;;;20.85;12.93;;;;;;;;;;5011985;28;20030;-74
2022/07/09 03:42:55;;;;;;;22.17;13.38;;;;;;;;;;5012120;28;20029;-74
2022/07/09 03:45:21;;;;;;;33.00;14.73;;;;;;;;;;5011802;28;20037;-74
2022/07/09 03:47:48;;;;;;;30.75;15.65;;;;;;;;;;5012061;28;20022;-74
2022/07/09 03:50:14;;;;;;;29.42;15.02;;;;;;;;;;5011789;28;20028;-75
2022/07/09 03:52:40;;;;;;;35.55;16.88;;;;;;;;;;5012099;28;20030;-74
2022/07/09 03:55:06;;;;;;;29.20;13.15;;;;;;;;;;5011926;28;20026;-74
2022/07/09 03:57:32;;;;;;;32.40;14.63;;;;;;;;;;5011977;28;20083;-74
2022/07/09 03:59:58;;;;;;;21.08;13.00;;;;;;;;;;5011771;28;20030;-74
2022/07/09 04:02:24;;;;;;;26.60;14.23;;;;;;;;;;5011738;28;20041;-75
2022/07/09 04:04:51;;;;;;;26.70;15.00;;;;;;;;;;5011904;28;20030;-74
2022/07/09 04:07:17;;;;;;;31.38;15.57;;;;;;;;;;5013871;28;20095;-75
2022/07/09 04:09:43;;;;;;;33.97;16.08;;;;;;;;;;5031280;28;20067;-74
2022/07/09 04:12:09;;;;;;;26.17;15.18;;;;;;;;;;5031591;28;20498;-74
2022/07/09 04:14:35;;;;;;;24.50;14.57;;;;;;;;;;5031228;28;20132;-74
2022/07/09 04:17:01;;;;;;;28.20;14.65;;;;;;;;;;5028497;28;20030;-74
2022/07/09 04:19:27;;;;;;;25.23;14.32;;;;;;;;;;5011670;28;20025;-74
2022/07/09 04:21:53;;;;;;;34.35;16.40;;;;;;;;;;5011463;28;20036;-74
2022/07/09 04:24:19;;;;;;;28.85;15.98;;;;;;;;;;5011688;28;20022;-74
2022/07/09 04:26:45;;;;;;;30.00;15.60;;;;;;;;;;5011593;28;20053;-74
2022/07/09 04:29:11;;;;;;;32.35;16.17;;;;;;;;;;5011553;28;20453;-74
2022/07/09 04:31:37;;;;;;;29.17;15.50;;;;;;;;;;5011286;28;20034;-74
2022/07/09 04:34:03;;;;;;;35.88;16.98;;;;;;;;;;5011544;28;20029;-74
2022/07/09 04:36:31;;;;;;;39.10;16.73;;;;;;;;;;5011339;28;20080;-74
2022/07/09 04:38:57;;;;;;;30.75;15.50;;;;;;;;;;5011439;28;20036;-75
2022/07/09 04:41:23;;;;;;;33.45;16.75;;;;;;;;;;5011444;28;20488;-74
2022/07/09 04:43:49;;;;;;;30.60;15.52;;;;;;;;;;5011477;28;20080;-75
2022/07/09 04:46:16;;;;;;;31.75;16.45;;;;;;;;;;5011247;28;20377;-74
2022/07/09 04:48:42;;;;;;;31.05;16.23;;;;;;;;;;5015071;28;20469;-74
2022/07/09 04:51:08;;;;;;;26.65;15.05;;;;;;;;;;5014699;28;20049;-74
2022/07/09 04:53:34;;;;;;;28.33;15.55;;;;;;;;;;5015072;28;20770;-74
2022/07/09 04:56:01;;;;;;;27.17;14.90;;;;;;;;;;5014837;28;20030;-75
2022/07/09 04:58:27;;;;;;;32.30;17.38;;;;;;;;;;5014912;28;20022;-74
2022/07/09 05:00:53;;;;;;;38.28;18.88;;;;;;;;;;5014620;28;20673;-74
2022/07/09 05:03:19;;;;;;;32.22;16.98;;;;;;;;;;5014755;28;20045;-74
2022/07/09 05:05:45;;;;;;;32.38;16.48;;;;;;;;;;5014349;28;20032;-75
2022/07/09 05:08:11;;;;;;;37.72;18.55;;;;;;;;;;5024349;28;20080;-75
2022/07/09 05:10:38;;;;;;;41.53;19.73;;;;;;;;;;5034312;28;20042;-74
2022/07/09 05:13:04;;;;;;;38.40;19.73;;;;;;;;;;5033175;28;20545;-75
2022/07/09 05:15:32;;;;;;;55.28;19.55;;;;;;;;;;5032662;28;20021;-75
2022/07/09 05:17:58;;;;;;;51.05;21.00;;;;;;;;;;5023734;28;20021;-75
2022/07/09 05:20:24;;;;;;;46.72;20.65;;;;;;;;;;5014194;28;20057;-74
2022/07/09 05:22:50;;;;;;;45.25;22.30;;;;;;;;;;5014435;28;20383;-75
2022/07/09 05:25:16;;;;;;;50.55;22.13;;;;;;;;;;5014261;28;20018;-74
2022/07/09 05:27:43;;;;;;;49.83;22.20;;;;;;;;;;5014432;28;20026;-75
2022/07/09 05:30:09;;;;;;;48.53;23.08;;;;;;;;;;5013803;28;20100;-74
2022/07/09 05:32:35;;;;;;;48.63;22.33;;;;;;;;;;5014148;28;20426;-75
2022/07/09 05:35:01;;;;;;;46.00;21.38;;;;;;;;;;5012609;28;20049;-75
2022/07/09 05:37:27;;;;;;;43.95;21.60;;;;;;;;;;5014110;28;20433;-75
2022/07/09 05:39:56;;;;;;;43.08;21.13;;;;;;;;;;5014059;28;20034;-75
2022/07/09 05:42:22;;;;;;;45.28;20.63;;;;;;;;;;5014018;28;20042;-75
2022/07/09 05:44:48;;;;;;;51.75;20.83;;;;;;;;;;5013770;28;20033;-75
2022/07/09 05:47:15;;;;;;;41.08;19.98;;;;;;;;;;5013782;28;20034;-75
2022/07/09 05:49:41;;;;;;;40.40;18.88;;;;;;;;;;5013583;28;20029;-75
2022/07/09 05:52:07;;;;;;;37.42;18.77;;;;;;;;;;5013739;28;20018;-74
2022/07/09 05:54:33;;;;;;;37.83;18.73;;;;;;;;;;5013703;28;20032;-75
2022/07/09 05:56:59;;;;;;;39.50;18.88;;;;;;;;;;5013712;28;20026;-75
2022/07/09 05:59:25;;;;;;;41.88;19.20;;;;;;;;;;5027734;28;20018;-75
2022/07/09 06:01:51;;;;;;;34.88;18.27;;;;;;;;;;5013310;28;20022;-75
2022/07/09 06:04:17;;;;;;;40.60;19.55;;;;;;;;;;5013639;28;20025;-75
2022/07/09 06:06:43;;;;;;;35.97;18.98;;;;;;;;;;5013282;28;20165;-75
2022/07/09 06:09:09;;;;;;;36.40;17.42;;;;;;;;;;5030955;28;20475;-75
2022/07/09 06:11:36;;;;;;;38.22;19.52;;;;;;;;;;5033424;28;20048;-75
2022/07/09 06:14:02;;;;;;;34.92;18.70;;;;;;;;;;5032910;28;20037;-75
2022/07/09 06:16:28;;;;;;;39.28;19.63;;;;;;;;;;5032892;28;20444;-75
2022/07/09 06:18:54;;;;;;;38.20;18.33;;;;;;;;;;5015053;28;20069;-74
2022/07/09 06:21:20;;;;;;;43.28;19.10;;;;;;;;;;5011757;28;20424;-75
2022/07/09 06:23:46;;;;;;;32.50;17.75;;;;;;;;;;5013495;28;20040;-75
2022/07/09 06:26:12;;;;;;;26.35;16.25;;;;;;;;;;5013217;28;20550;-75
2022/07/09 06:28:38;;;;;;;33.92;15.20;;;;;;;;;;5013176;28;20530;-75
2022/07/09 06:31:04;;;;;;;24.23;13.98;;;;;;;;;;5013092;28;20042;-75
2022/07/09 06:33:30;;;;;;;30.90;15.40;;;;;;;;;;5011768;28;20025;-75
2022/07/09 06:35:56;;;;;;;19.23;11.88;;;;;;;;;;5012873;28;20095;-74
2022/07/09 06:38:22;;;;;;;22.77;13.18;;;;;;;;;;5013074;28;20029;-75
2022/07/09 06:40:48;;;;;;;22.67;12.63;;;;;;;;;;5012983;28;20380;-75
2022/07/09 06:43:14;;;;;;;21.95;11.90;;;;;;;;;;5012938;28;20045;-75
2022/07/09 06:45:41;;;;;;;22.92;12.38;;;;;;;;;;5012590;28;20034;-75
2022/07/09 06:48:07;;;;;;;19.92;11.07;;;;;;;;;;5012849;28;20026;-75
2022/07/09 06:50:33;;;;;;;22.05;12.27;;;;;;;;;;5012642;28;20080;-75
2022/07/09 06:52:59;;;;;;;21.45;11.95;;;;;;;;;;5012794;28;20029;-75
2022/07/09 06:55:25;;;;;;;20.20;11.50;;;;;;;;;;5012714;28;20063;-75
2022/07/09 06:57:51;;;;;;;22.77;11.98;;;;;;;;;;5012651;28;20065;-75
2022/07/09 07:00:17;;;;;;;25.65;12.52;;;;;;;;;;5012431;28;20026;-75
2022/07/09 07:02:43;;;;;;;22.77;10.85;;;;;;;;;;5012711;28;20057;-75
2022/07/09 07:05:09;;;;;;;20.27;10.35;;;;;;;;;;5012386;28;20026;-75
2022/07/09 07:07:35;;;;;;;15.25;9.95;;;;;;;;;;5017233;28;20387;-75
2022/07/09 07:10:01;;;;;;;14.82;9.88;;;;;;;;;;5031788;28;20403;-75
2022/07/09 07:12:27;;;;;;;15.45;9.93;;;;;;;;;;5032195;28;20040;-75
2022/07/09 07:14:53;;;;;;;17.52;9.68;;;;;;;;;;5031956;28;20033;-75
2022/07/09 07:17:19;;;;;;;16.42;9.50;;;;;;;;;;5026664;28;20029;-75
2022/07/09 07:19:45;;;;;;;11.68;7.78;;;;;;;;;;5012219;28;20072;-74
2022/07/09 07:22:11;;;;;;;16.92;8.65;;;;;;;;;;5012210;28;20022;-75
2022/07/09 07:24:37;;;;;;;15.35;8.50;;;;;;;;;;5012283;28;20029;-75
2022/07/09 07:27:03;;;;;;;11.40;8.00;;;;;;;;;;5012284;28;20040;-75
2022/07/09 07:29:30;;;;;;;14.20;8.93;;;;;;;;;;5012021;28;20465;-75
2022/07/09 07:31:57;;;;;;;11.77;8.25;;;;;;;;;;5012028;28;20360;-75
2022/07/09 07:34:24;;;;;;;17.15;9.02;;;;;;;;;;5012123;28;20045;-75
2022/07/09 07:36:51;;;;;;;14.57;9.48;;;;;;;;;;5011964;28;20018;-74
2022/07/09 07:39:17;;;;;;;15.38;10.07;;;;;;;;;;5012071;28;20022;-75
2022/07/09 07:41:44;;;;;;;15.38;9.75;;;;;;;;;;5012049;28;20476;-75
2022/07/09 07:44:10;;;;;;;14.45;10.07;;;;;;;;;;5012064;28;20022;-75
2022/07/09 07:46:36;;;;;;;14.75;9.20;;;;;;;;;;5011767;28;20045;-75
2022/07/09 07:49:02;;;;;;;16.48;10.25;;;;;;;;;;5011985;28;20034;-74
2022/07/09 07:51:28;;;;;;;14.50;10.45;;;;;;;;;;5011727;28;20033;-75
2022/07/09 07:53:54;;;;;;;18.88;10.90;;;;;;;;;;5012010;28;20022;-75
2022/07/09 07:56:20;;;;;;;15.35;10.30;;;;;;;;;;5011915;28;20044;-75
2022/07/09 07:58:46;;;;;;;15.65;11.52;;;;;;;;;;5011886;28;20495;-75
2022/07/09 08:01:12;;;;;;;21.13;11.48;;;;;;;;;;5011732;28;20057;-75
2022/07/09 08:03:38;;;;;;;18.10;11.60;;;;;;;;;;5011900;28;20112;-75
2022/07/09 08:06:04;;;;;;;16.75;10.40;;;;;;;;;;5011610;28;20484;-75
2022/07/09 08:08:30;;;;;;;16.63;10.93;;;;;;;;;;5024026;28;20081;-75
2022/07/09 08:10:56;;;;;;;15.27;10.82;;;;;;;;;;5031386;28;20030;-75
2022/07/09 08:13:22;;;;;;;13.48;10.07;;;;;;;;;;5031480;28;20095;-75
2022/07/09 08:15:48;;;;;;;16.90;11.02;;;;;;;;;;5030944;28;20028;-75
2022/07/09 08:18:14;;;;;;;19.88;11.13;;;;;;;;;;5018637;28;20025;-75
2022/07/09 08:20:41;;;;;;;17.15;10.45;;;;;;;;;;5011586;28;20751;-75
2022/07/09 08:23:07;;;;;;;19.58;11.02;;;;;;;;;;5014662;28;20409;-75
2022/07/09 08:25:34;;;;;;;16.10;10.43;;;;;;;;;;5015363;28;20057;-75
2022/07/09 08:28:00;;;;;;;13.32;9.40;;;;;;;;;;5015511;28;20037;-75
2022/07/09 08:30:26;;;;;;;16.27;8.48;;;;;;;;;;5015026;28;20056;-74
2022/07/09 08:32:52;;;;;;;14.75;8.93;;;;;;;;;;5015260;28;20018;-75
2022/07/09 08:35:18;;;;;;;11.43;8.25;;;;;;;;;;5015088;28;20100;-75
2022/07/09 08:37:44;;;;;;;11.63;8.30;;;;;;;;;;5015244;28;20029;-75
2022/07/09 08:40:11;;;;;;;12.90;8.27;;;;;;;;;;5013755;28;20026;-75
2022/07/09 08:42:38;;;;;;;10.02;7.80;;;;;;;;;;5013832;28;20494;-75
2022/07/09 08:45:08;;;;;;;13.93;7.63;;;;;;;;;;5014762;28;20022;-74
2022/07/09 08:47:35;;;;;;;11.85;6.88;;;;;;;;;;5015065;28;20030;-74
2022/07/09 08:50:01;;;;;;;12.52;6.93;;;;;;;;;;5014734;28;20029;-75
2022/07/09 08:52:27;;;;;;;11.75;6.88;;;;;;;;;;5015013;28;20101;-75
2022/07/09 08:54:54;;;;;;;8.85;6.38;;;;;;;;;;5014911;28;20026;-75
2022/07/09 08:57:20;;;;;;;13.07;7.55;;;;;;;;;;5014922;28;20026;-75
2022/07/09 08:59:46;;;;;;;13.13;7.80;;;;;;;;;;5014742;28;20033;-75
2022/07/09 09:02:13;;;;;;;15.13;8.18;;;;;;;;;;5014792;28;20026;-75
2022/07/09 09:04:40;;;;;;;9.98;7.35;;;;;;;;;;5014686;28;20045;-75
2022/07/09 09:07:12;;;;;;;9.40;7.00;;;;;;;;;;5015262;28;20030;-75
2022/07/09 09:09:38;;;;;;;8.70;6.35;;;;;;;;;;5034155;28;20040;-74
2022/07/09 09:12:05;;;;;;;14.88;6.75;;;;;;;;;;5034385;28;20046;-74
2022/07/09 09:14:31;;;;;;;15.70;6.57;;;;;;;;;;5034367;28;20021;-75
2022/07/09 09:17:09;;;;;;;9.27;6.53;;;;;;;;;;5031891;28;20029;-75
2022/07/09 09:19:35;;;;;;;13.70;6.05;;;;;;;;;;5014378;28;20026;-75
2022/07/09 09:22:01;;;;;;;10.38;5.70;;;;;;;;;;5014315;28;20445;-74
2022/07/09 09:24:29;;;;;;;11.18;4.00;;;;;;;;;;5014379;28;20030;-74
2022/07/09 09:26:58;;;;;;;6.57;3.30;;;;;;;;;;5014326;28;20484;-75
2022/07/09 09:29:24;;;;;;;7.68;3.30;;;;;;;;;;5013972;28;20022;-74
2022/07/09 09:31:51;;;;;;;3.55;2.22;;;;;;;;;;5014100;28;20060;-75
2022/07/09 09:34:17;;;;;;;5.28;2.10;;;;;;;;;;5013695;28;20026;-75
2022/07/09 09:36:44;;;;;;;4.55;2.08;;;;;;;;;;5013644;28;20029;-75
2022/07/09 09:39:16;;;;;;;3.22;1.88;;;;;;;;;;5013576;28;20469;-75
2022/07/09 09:41:42;;;;;;;;;;;;;;;;;;5014355;28;20472;-75
2022/07/09 09:44:10;;;;;;;4.68;2.00;;;;;;;;;;5013900;28;19909;-75
2022/07/09 09:46:39;;;;;;;3.92;1.75;;;;;;;;;;5013624;28;20026;-75
2022/07/09 09:49:07;;;;;;;4.25;1.52;;;;;;;;;;5013887;28;20373;-75
2022/07/09 09:51:38;;;;;;;5.18;1.67;;;;;;;;;;5013624;28;20451;-74
2022/07/09 09:54:04;;;;;;;2.70;1.50;;;;;;;;;;5013876;28;20026;-75
2022/07/09 09:56:32;;;;;;;9.48;1.90;;;;;;;;;;5012342;28;20029;-75
2022/07/09 09:58:59;;;;;;;5.22;1.80;;;;;;;;;;5013709;28;20034;-75
2022/07/09 10:01:26;;;;;;;3.47;1.73;;;;;;;;;;5013472;28;20396;-74
2022/07/09 10:03:54;;;;;;;2.65;1.80;;;;;;;;;;5012285;28;20034;-75
2022/07/09 10:06:21;;;;;;;2.28;1.60;;;;;;;;;;5013374;28;20026;-75
2022/07/09 10:08:47;;;;;;;2.65;1.55;;;;;;;;;;5027883;28;20025;-75
2022/07/09 10:11:13;;;;;;;3.92;1.70;;;;;;;;;;5033294;28;20033;-75
2022/07/09 10:13:49;;;;;;;5.00;1.60;;;;;;;;;;5033222;28;20021;-75
2022/07/09 10:16:15;;;;;;;2.35;1.30;;;;;;;;;;5032997;28;20079;-75
2022/07/09 10:18:51;;;;;;;3.80;1.40;;;;;;;;;;5016663;28;20022;-75
2022/07/09 10:21:17;;;;;;;3.20;1.35;;;;;;;;;;5013020;28;20476;-74
2022/07/09 10:23:50;;;;;;;3.45;1.60;;;;;;;;;;5013236;28;20060;-74
2022/07/09 10:26:16;;;;;;;1.83;1.10;;;;;;;;;;5013136;28;20025;-74
2022/07/09 10:28:42;;;;;;;3.33;1.05;;;;;;;;;;5011915;28;20149;-74
2022/07/09 10:31:09;;;;;;;4.95;1.10;;;;;;;;;;5012757;28;20169;-75
2022/07/09 10:33:35;;;;;;;2.03;0.90;;;;;;;;;;5013108;28;20029;-75
2022/07/09 10:36:11;;;;;;;1.10;0.75;;;;;;;;;;5011421;28;20400;-76
2022/07/09 10:38:40;;;;;;;1.67;0.80;;;;;;;;;;5013010;28;20101;-75
2022/07/09 10:41:07;;;;;;;3.08;0.98;;;;;;;;;;5011541;28;20061;-75
2022/07/09 10:43:47;;;;;;;1.67;0.93;;;;;;;;;;5012983;28;20061;-75
2022/07/09 10:46:14;;;;;;;3.70;1.00;;;;;;;;;;5012040;28;20030;-75
2022/07/09 10:48:41;;;;;;;1.83;0.90;;;;;;;;;;5012885;28;20030;-75
2022/07/09 10:51:07;;;;;;;3.45;0.93;;;;;;;;;;5012368;28;20101;-74
2022/07/09 10:53:33;;;;;;;5.60;0.70;;;;;;;;;;5012741;28;20030;-75
2022/07/09 10:56:00;;;;;;;4.57;0.93;;;;;;;;;;5012710;28;20109;-75
2022/07/09 10:58:28;;;;;;;3.78;1.10;;;;;;;;;;5012663;28;20032;-75
2022/07/09 11:00:55;;;;;;;4.22;1.13;;;;;;;;;;5011071;28;20026;-75
2022/07/09 11:03:25;;;;;;;4.32;0.88;;;;;;;;;;5012601;28;20018;-76
2022/07/09 11:05:51;;;;;;;5.68;0.82;;;;;;;;;;5012359;28;20380;-75
2022/07/09 11:08:17;;;;;;;5.15;0.80;;;;;;;;;;5022894;28;20026;-75
2022/07/09 11:10:43;;;;;;;4.15;0.90;;;;;;;;;;5032218;28;20033;-75
2022/07/09 11:13:09;;;;;;;2.13;0.90;;;;;;;;;;5032107;28;20029;-75
2022/07/09 11:15:36;;;;;;;4.82;1.30;;;;;;;;;;5031952;28;20034;-75
2022/07/09 11:18:06;;;;;;;4.40;0.90;;;;;;;;;;5021154;28;20456;-74
2022/07/09 11:20:33;;;;;;;2.17;0.68;;;;;;;;;;5012227;28;20037;-75
2022/07/09 11:23:00;;;;;;;3.88;0.90;;;;;;;;;;5012321;28;20034;-75
2022/07/09 11:25:27;;;;;;;1.90;0.90;;;;;;;;;;5010841;28;20032;-76
2022/07/09 11:27:54;;;;;;;4.63;0.70;;;;;;;;;;5012326;28;20423;-75
2022/07/09 11:30:20;;;;;;;1.75;0.60;;;;;;;;;;5011703;28;20052;-75
2022/07/09 11:32:46;;;;;;;1.85;0.80;;;;;;;;;;5010725;28;20472;-75
2022/07/09 11:35:12;;;;;;;2.25;0.80;;;;;;;;;;5011919;28;20024;-75
2022/07/09 11:37:45;;;;;;;3.65;0.82;;;;;;;;;;5012145;28;20026;-75
2022/07/09 11:40:17;;;;;;;1.40;0.90;;;;;;;;;;5012053;28;20077;-75
2022/07/09 11:42:43;;;;;;;3.78;0.70;;;;;;;;;;5012131;28;20026;-75
2022/07/09 11:45:09;;;;;;;5.07;0.65;;;;;;;;;;5011723;28;20018;-76
2022/07/09 11:47:39;;;;;;;2.88;1.00;;;;;;;;;;5011978;28;20030;-75
2022/07/09 11:50:12;;;;;;;3.38;0.80;;;;;;;;;;5011760;28;20030;-75
2022/07/09 11:52:49;;;;;;;2.20;0.65;;;;;;;;;;5012011;28;20046;-75
2022/07/09 11:55:22;;;;;;;3.85;0.65;;;;;;;;;;5011854;28;20240;-75
2022/07/09 11:57:52;;;;;;;5.13;0.90;;;;;;;;;;5014618;28;20096;-74
2022/07/09 12:00:23;;;;;;;3.97;0.70;;;;;;;;;;5015683;28;20026;-75
2022/07/09 12:02:49;;;;;;;3.83;0.93;;;;;;;;;;5015643;28;20041;-75
2022/07/09 12:05:24;;;;;;;3.58;0.77;;;;;;;;;;5015534;28;20038;-75
2022/07/09 12:07:53;;;;;;;1.58;0.70;;;;;;;;;;5022481;28;20026;-75
2022/07/09 12:10:25;;;;;;;3.80;0.80;;;;;;;;;;5035363;28;20066;-75
2022/07/09 12:12:51;;;;;;;4.85;0.65;;;;;;;;;;5035293;28;20037;-75
2022/07/09 12:15:17;;;;;;;1.63;0.60;;;;;;;;;;5035137;28;20021;-75
2022/07/09 12:17:43;;;;;;;1.60;0.70;;;;;;;;;;5026633;28;20041;-75
2022/07/09 12:20:10;;;;;;;2.80;0.82;;;;;;;;;;5015155;28;20029;-75
2022/07/09 12:22:36;;;;;;;8.13;1.67;;;;;;;;;;5015465;28;20392;-75
2022/07/09 12:25:02;;;;;;;2.70;0.55;;;;;;;;;;5015409;28;20026;-75
2022/07/09 12:27:29;;;;;;;3.38;0.90;;;;;;;;;;5015381;28;20030;-75
2022/07/09 12:29:55;;;;;;;3.28;0.70;;;;;;;;;;5014997;28;20038;-75
2022/07/09 12:32:21;;;;;;;10.18;0.93;;;;;;;;;;5015138;28;20045;-75
2022/07/09 12:34:47;;;;;;;3.80;0.70;;;;;;;;;;5015108;28;20032;-75
2022/07/09 12:37:13;;;;;;;4.45;0.80;;;;;;;;;;5015258;28;20022;-75
2022/07/09 12:39:39;;;;;;;3.97;0.85;;;;;;;;;;5015081;28;20030;-75
2022/07/09 12:42:05;;;;;;;2.85;0.80;;;;;;;;;;5015249;28;20033;-75
2022/07/09 12:44:31;;;;;;;2.65;0.60;;;;;;;;;;5014971;28;20032;-74
2022/07/09 12:46:57;;;;;;;2.83;0.65;;;;;;;;;;5014899;28;20022;-75
2022/07/09 12:49:23;;;;;;;2.30;0.55;;;;;;;;;;5014922;28;20030;-75
2022/07/09 12:51:49;;;;;;;2.22;0.70;;;;;;;;;;5014671;28;20484;-75
2022/07/09 12:54:15;;;;;;;4.43;0.90;;;;;;;;;;5015013;28;20033;-75
2022/07/09 12:56:41;;;;;;;3.47;0.70;;;;;;;;;;5014872;28;20026;-75
2022/07/09 12:59:07;;;;;;;4.65;1.02;;;;;;;;;;5014773;28;20025;-75
2022/07/09 13:01:33;;;;;;;3.15;0.80;;;;;;;;;;5014727;28;20109;-75
2022/07/09 13:03:59;;;;;;;4.05;0.70;;;;;;;;;;5014822;28;20034;-76
2022/07/09 13:06:31;;;;;;;4.38;0.93;;;;;;;;;;5014568;28;20053;-75
2022/07/09 13:08:57;;;;;;;;;;;;;;;;;;5030300;28;20472;-75
2022/07/09 13:11:23;;;;;;;3.85;1.23;;;;;;;;;;5034649;28;19952;-75
2022/07/09 13:13:49;;;;;;;1.83;0.60;;;;;;;;;;5034390;28;20033;-76
2022/07/09 13:16:15;;;;;;;4.15;0.60;;;;;;;;;;5032789;28;20107;-75
2022/07/09 13:18:41;;;;;;;2.83;0.75;;;;;;;;;;5017816;28;20026;-75
2022/07/09 13:21:08;;;;;;;5.47;0.80;;;;;;;;;;5014258;28;20045;-76
2022/07/09 13:23:34;;;;;;;5.07;0.95;;;;;;;;;;5014332;28;20053;-75
2022/07/09 13:26:00;;;;;;;2.05;0.60;;;;;;;;;;5014351;28;20052;-76
2022/07/09 13:28:27;;;;;;;3.75;0.73;;;;;;;;;;5014374;28;20033;-75
2022/07/09 13:30:53;;;;;;;3.88;1.00;;;;;;;;;;5013880;28;20042;-75
2022/07/09 13:33:19;;;;;;;1.50;0.52;;;;;;;;;;5014239;28;20094;-75
2022/07/09 13:35:45;;;;;;;5.18;0.70;;;;;;;;;;5013930;28;20034;-75
2022/07/09 13:38:11;;;;;;;4.20;1.00;;;;;;;;;;5014008;28;20452;-76
2022/07/09 13:40:37;;;;;;;3.28;0.80;;;;;;;;;;5013985;28;20101;-75
2022/07/09 13:43:03;;;;;;;3.15;0.65;;;;;;;;;;5014012;28;20030;-75
2022/07/09 13:45:29;;;;;;;3.15;0.60;;;;;;;;;;5012295;28;20017;-75
2022/07/09 13:47:55;;;;;;;8.82;1.10;;;;;;;;;;5013891;28;20444;-75
2022/07/09 13:50:21;;;;;;;2.67;0.88;;;;;;;;;;5013458;28;20654;-75
2022/07/09 13:52:48;;;;;;;5.53;0.75;;;;;;;;;;5013901;28;20025;-76
2022/07/09 13:55:14;;;;;;;2.13;0.65;;;;;;;;;;5013829;28;20109;-75
2022/07/09 13:57:41;;;;;;;3.80;0.73;;;;;;;;;;5013683;28;20445;-75
2022/07/09 14:00:08;;;;;;;1.95;0.60;;;;;;;;;;5013491;28;20718;-75
2022/07/09 14:02:34;;;;;;;2.30;0.70;;;;;;;;;;5013726;28;20030;-76
2022/07/09 14:05:04;;;;;;;4.78;0.85;;;;;;;;;;5013416;28;20030;-75
2022/07/09 14:07:30;;;;;;;4.10;0.80;;;;;;;;;;5017517;28;20063;-74
2022/07/09 14:09:56;;;;;;;3.90;0.68;;;;;;;;;;5033124;28;20038;-76
2022/07/09 14:12:24;;;;;;;2.63;1.00;;;;;;;;;;5033273;28;20033;-76
2022/07/09 14:14:50;;;;;;;4.60;1.13;;;;;;;;;;5033166;28;20037;-75
2022/07/09 14:17:17;;;;;;;7.22;1.60;;;;;;;;;;5028278;28;20550;-76
2022/07/09 14:19:43;;;;;;;5.20;1.05;;;;;;;;;;5012369;28;20121;-75
2022/07/09 14:22:09;;;;;;;5.60;1.15;;;;;;;;;;5013193;28;20076;-76
2022/07/09 14:24:35;;;;;;;8.32;1.30;;;;;;;;;;5013286;28;20510;-75
2022/07/09 14:27:01;;;;;;;8.10;1.10;;;;;;;;;;5013340;28;20018;-75